sensor_id;sensor_type;location;lat;lon;timestamp;P1;durP1;ratioP1;P2;durP2;ratioP2
26181;SDS011;13927;51.534;11.866;2023-05-10T00:01:40;6.72;;;5.68;;
26181;SDS011;13927;51.534;11.866;2023-05-10T00:04:08;7.75;;;5.60;;
26181;SDS011;13927;51.534;11.866;2023-05-10T00:06:34;6.82;;;5.38;;
26181;SDS011;13927;51.534;11.866;2023-05-10T00:09:00;6.43;;;5.20;;
26181;SDS011;13927;51.534;11.866;2023-05-10T00:11:25;8.65;;;5.60;;
26181;SDS011;13927;51.534;11.866;2023-05-10T00:13:52;7.13;;;5.43;;
26181;SDS011;13927;51.534;11.866;2023-05-10T00:16:18;9.63;;;5.93;;
26181;SDS011;13927;51.534;11.866;2023-05-10T00:18:43;9.45;;;6.18;;
26181;SDS011;13927;51.534;11.866;2023-05-10T00:21:09;7.35;;;5.80;;
26181;SDS011;13927;51.534;11.866;2023-05-10T00:23:35;8.23;;;5.88;;
26181;SDS011;13927;51.534;11.866;2023-05-10T00:26:02;7.43;;;6.07;;
26181;SDS011;13927;51.534;11.866;2023-05-10T00:28:27;8.45;;;6.18;;
26181;SDS011;13927;51.534;11.866;2023-05-10T00:30:54;8.35;;;6.47;;
26181;SDS011;13927;51.534;11.866;2023-05-10T00:33:20;7.97;;;5.95;;
26181;SDS011;13927;51.534;11.866;2023-05-10T00:35:46;7.13;;;6.20;;
26181;SDS011;13927;51.534;11.866;2023-05-10T00:38:11;8.55;;;6.43;;
26181;SDS011;13927;51.534;11.866;2023-05-10T00:40:37;7.65;;;5.78;;
26181;SDS011;13927;51.534;11.866;2023-05-10T00:43:03;8.43;;;6.80;;
26181;SDS011;13927;51.534;11.866;2023-05-10T00:45:30;7.53;;;6.38;;
26181;SDS011;13927;51.534;11.866;2023-05-10T00:47:57;7.35;;;5.90;;
26181;SDS011;13927;51.534;11.866;2023-05-10T00:50:27;6.78;;;5.55;;
26181;SDS011;13927;51.534;11.866;2023-05-10T00:52:53;7.50;;;6.47;;
26181;SDS011;13927;51.534;11.866;2023-05-10T00:55:19;7.05;;;6.03;;
26181;SDS011;13927;51.534;11.866;2023-05-10T00:57:45;9.43;;;6.45;;
26181;SDS011;13927;51.534;11.866;2023-05-10T01:00:12;11.35;;;7.70;;
26181;SDS011;13927;51.534;11.866;2023-05-10T01:02:42;8.07;;;5.72;;
26181;SDS011;13927;51.534;11.866;2023-05-10T01:05:09;10.38;;;6.30;;
26181;SDS011;13927;51.534;11.866;2023-05-10T01:07:35;8.10;;;5.75;;
26181;SDS011;13927;51.534;11.866;2023-05-10T01:10:00;8.38;;;5.97;;
26181;SDS011;13927;51.534;11.866;2023-05-10T01:12:26;7.95;;;6.30;;
26181;SDS011;13927;51.534;11.866;2023-05-10T01:14:52;9.18;;;6.35;;
26181;SDS011;13927;51.534;11.866;2023-05-10T01:17:19;7.72;;;5.70;;
26181;SDS011;13927;51.534;11.866;2023-05-10T01:19:47;8.63;;;6.22;;
26181;SDS011;13927;51.534;11.866;2023-05-10T01:31:29;7.47;;;6.68;;
26181;SDS011;13927;51.534;11.866;2023-05-10T01:34:40;9.43;;;7.10;;
26181;SDS011;13927;51.534;11.866;2023-05-10T01:40:26;9.43;;;7.47;;
26181;SDS011;13927;51.534;11.866;2023-05-10T01:43:02;7.75;;;6.15;;
26181;SDS011;13927;51.534;11.866;2023-05-10T01:45:34;8.90;;;6.32;;
26181;SDS011;13927;51.534;11.866;2023-05-10T01:48:20;7.50;;;6.28;;
26181;SDS011;13927;51.534;11.866;2023-05-10T01:50:56;8.02;;;6.85;;
26181;SDS011;13927;51.534;11.866;2023-05-10T01:53:23;8.48;;;6.65;;
26181;SDS011;13927;51.534;11.866;2023-05-10T01:55:56;9.00;;;6.25;;
26181;SDS011;13927;51.534;11.866;2023-05-10T01:58:30;7.97;;;6.72;;
26181;SDS011;13927;51.534;11.866;2023-05-10T02:01:00;7.88;;;6.18;;
26181;SDS011;13927;51.534;11.866;2023-05-10T02:03:29;10.75;;;6.68;;
26181;SDS011;13927;51.534;11.866;2023-05-10T02:05:57;8.20;;;6.85;;
26181;SDS011;13927;51.534;11.866;2023-05-10T02:08:23;9.18;;;6.85;;
26181;SDS011;13927;51.534;11.866;2023-05-10T02:10:52;10.25;;;6.82;;
26181;SDS011;13927;51.534;11.866;2023-05-10T02:13:21;10.10;;;6.32;;
26181;SDS011;13927;51.534;11.866;2023-05-10T02:15:48;7.93;;;7.00;;
26181;SDS011;13927;51.534;11.866;2023-05-10T02:18:15;9.55;;;7.88;;
26181;SDS011;13927;51.534;11.866;2023-05-10T02:20:44;8.73;;;6.50;;
26181;SDS011;13927;51.534;11.866;2023-05-10T02:23:11;8.38;;;6.57;;
26181;SDS011;13927;51.534;11.866;2023-05-10T02:25:38;8.30;;;7.03;;
26181;SDS011;13927;51.534;11.866;2023-05-10T02:28:05;10.30;;;7.80;;
26181;SDS011;13927;51.534;11.866;2023-05-10T02:30:32;11.13;;;7.43;;
26181;SDS011;13927;51.534;11.866;2023-05-10T02:32:59;10.70;;;6.90;;
26181;SDS011;13927;51.534;11.866;2023-05-10T02:35:28;7.35;;;6.43;;
26181;SDS011;13927;51.534;11.866;2023-05-10T02:37:54;8.23;;;6.63;;
26181;SDS011;13927;51.534;11.866;2023-05-10T02:40:23;8.90;;;7.05;;
26181;SDS011;13927;51.534;11.866;2023-05-10T02:42:51;10.93;;;7.50;;
26181;SDS011;13927;51.534;11.866;2023-05-10T02:45:20;8.15;;;6.10;;
26181;SDS011;13927;51.534;11.866;2023-05-10T02:47:51;7.75;;;5.95;;
26181;SDS011;13927;51.534;11.866;2023-05-10T02:50:17;9.13;;;6.03;;
26181;SDS011;13927;51.534;11.866;2023-05-10T02:52:49;8.73;;;6.10;;
26181;SDS011;13927;51.534;11.866;2023-05-10T02:55:19;8.88;;;7.00;;
26181;SDS011;13927;51.534;11.866;2023-05-10T02:57:58;9.57;;;6.80;;
26181;SDS011;13927;51.534;11.866;2023-05-10T03:00:25;9.90;;;7.07;;
26181;SDS011;13927;51.534;11.866;2023-05-10T03:02:52;9.18;;;7.85;;
26181;SDS011;13927;51.534;11.866;2023-05-10T03:05:18;8.75;;;6.78;;
26181;SDS011;13927;51.534;11.866;2023-05-10T03:07:45;9.93;;;7.13;;
26181;SDS011;13927;51.534;11.866;2023-05-10T03:10:11;9.10;;;6.78;;
26181;SDS011;13927;51.534;11.866;2023-05-10T03:15:25;9.13;;;7.05;;
26181;SDS011;13927;51.534;11.866;2023-05-10T03:18:23;8.32;;;6.53;;
26181;SDS011;13927;51.534;11.866;2023-05-10T03:20:57;10.45;;;6.80;;
26181;SDS011;13927;51.534;11.866;2023-05-10T03:23:32;10.13;;;7.65;;
26181;SDS011;13927;51.534;11.866;2023-05-10T03:26:15;10.38;;;6.40;;
26181;SDS011;13927;51.534;11.866;2023-05-10T03:28:45;8.70;;;6.93;;
26181;SDS011;13927;51.534;11.866;2023-05-10T03:31:13;7.75;;;6.72;;
26181;SDS011;13927;51.534;11.866;2023-05-10T03:33:46;8.88;;;6.53;;
26181;SDS011;13927;51.534;11.866;2023-05-10T03:36:17;11.52;;;7.03;;
26181;SDS011;13927;51.534;11.866;2023-05-10T03:38:43;10.38;;;6.90;;
26181;SDS011;13927;51.534;11.866;2023-05-10T03:41:09;7.68;;;6.72;;
26181;SDS011;13927;51.534;11.866;2023-05-10T03:43:35;10.65;;;7.00;;
26181;SDS011;13927;51.534;11.866;2023-05-10T03:46:02;10.32;;;7.70;;
26181;SDS011;13927;51.534;11.866;2023-05-10T03:48:29;9.25;;;6.75;;
26181;SDS011;13927;51.534;11.866;2023-05-10T03:50:55;10.52;;;7.07;;
26181;SDS011;13927;51.534;11.866;2023-05-10T03:53:21;10.68;;;7.38;;
26181;SDS011;13927;51.534;11.866;2023-05-10T03:55:47;7.43;;;6.53;;
26181;SDS011;13927;51.534;11.866;2023-05-10T03:58:13;8.98;;;6.57;;
26181;SDS011;13927;51.534;11.866;2023-05-10T04:00:40;9.07;;;6.25;;
26181;SDS011;13927;51.534;11.866;2023-05-10T04:03:10;11.65;;;6.78;;
26181;SDS011;13927;51.534;11.866;2023-05-10T04:05:37;7.97;;;6.32;;
26181;SDS011;13927;51.534;11.866;2023-05-10T04:08:02;10.73;;;6.78;;
26181;SDS011;13927;51.534;11.866;2023-05-10T04:10:29;7.82;;;6.60;;
26181;SDS011;13927;51.534;11.866;2023-05-10T04:12:54;9.70;;;6.45;;
26181;SDS011;13927;51.534;11.866;2023-05-10T04:15:20;8.98;;;6.72;;
26181;SDS011;13927;51.534;11.866;2023-05-10T04:17:46;9.85;;;6.95;;
26181;SDS011;13927;51.534;11.866;2023-05-10T04:20:12;8.02;;;6.63;;
26181;SDS011;13927;51.534;11.866;2023-05-10T04:22:38;8.93;;;6.68;;
26181;SDS011;13927;51.534;11.866;2023-05-10T04:25:04;8.18;;;6.57;;
26181;SDS011;13927;51.534;11.866;2023-05-10T04:27:31;7.43;;;6.43;;
26181;SDS011;13927;51.534;11.866;2023-05-10T04:29:57;7.75;;;6.13;;
26181;SDS011;13927;51.534;11.866;2023-05-10T04:32:22;8.68;;;6.90;;
26181;SDS011;13927;51.534;11.866;2023-05-10T04:34:48;7.20;;;6.13;;
26181;SDS011;13927;51.534;11.866;2023-05-10T04:37:15;7.20;;;6.38;;
26181;SDS011;13927;51.534;11.866;2023-05-10T04:39:41;7.55;;;6.47;;
26181;SDS011;13927;51.534;11.866;2023-05-10T04:42:07;9.00;;;6.40;;
26181;SDS011;13927;51.534;11.866;2023-05-10T04:44:33;7.82;;;6.60;;
26181;SDS011;13927;51.534;11.866;2023-05-10T04:47:00;7.78;;;6.28;;
26181;SDS011;13927;51.534;11.866;2023-05-10T04:49:27;7.68;;;5.90;;
26181;SDS011;13927;51.534;11.866;2023-05-10T04:51:53;10.77;;;5.65;;
26181;SDS011;13927;51.534;11.866;2023-05-10T04:54:19;9.32;;;6.07;;
26181;SDS011;13927;51.534;11.866;2023-05-10T04:56:45;7.75;;;6.38;;
26181;SDS011;13927;51.534;11.866;2023-05-10T04:59:11;8.50;;;6.10;;
26181;SDS011;13927;51.534;11.866;2023-05-10T05:01:37;8.00;;;5.70;;
26181;SDS011;13927;51.534;11.866;2023-05-10T05:04:03;9.13;;;6.22;;
26181;SDS011;13927;51.534;11.866;2023-05-10T05:06:29;8.88;;;6.13;;
26181;SDS011;13927;51.534;11.866;2023-05-10T05:08:54;8.45;;;6.22;;
26181;SDS011;13927;51.534;11.866;2023-05-10T05:11:20;7.88;;;5.85;;
26181;SDS011;13927;51.534;11.866;2023-05-10T05:13:46;10.18;;;6.53;;
26181;SDS011;13927;51.534;11.866;2023-05-10T05:16:12;9.68;;;6.32;;
26181;SDS011;13927;51.534;11.866;2023-05-10T05:18:37;7.68;;;6.30;;
26181;SDS011;13927;51.534;11.866;2023-05-10T05:21:12;7.75;;;5.97;;
26181;SDS011;13927;51.534;11.866;2023-05-10T05:23:40;9.65;;;6.45;;
26181;SDS011;13927;51.534;11.866;2023-05-10T05:26:06;9.48;;;6.25;;
26181;SDS011;13927;51.534;11.866;2023-05-10T05:28:31;6.55;;;5.65;;
26181;SDS011;13927;51.534;11.866;2023-05-10T05:30:58;8.05;;;5.97;;
26181;SDS011;13927;51.534;11.866;2023-05-10T05:33:24;7.55;;;6.25;;
26181;SDS011;13927;51.534;11.866;2023-05-10T05:35:50;8.10;;;6.45;;
26181;SDS011;13927;51.534;11.866;2023-05-10T05:38:16;9.90;;;6.13;;
26181;SDS011;13927;51.534;11.866;2023-05-10T05:40:42;7.93;;;5.50;;
26181;SDS011;13927;51.534;11.866;2023-05-10T05:43:08;9.13;;;5.75;;
26181;SDS011;13927;51.534;11.866;2023-05-10T05:45:34;7.32;;;4.97;;
26181;SDS011;13927;51.534;11.866;2023-05-10T05:47:59;6.55;;;4.95;;
26181;SDS011;13927;51.534;11.866;2023-05-10T05:50:25;8.52;;;5.00;;
26181;SDS011;13927;51.534;11.866;2023-05-10T05:52:51;8.95;;;5.30;;
26181;SDS011;13927;51.534;11.866;2023-05-10T05:55:17;7.63;;;4.72;;
26181;SDS011;13927;51.534;11.866;2023-05-10T05:57:43;7.22;;;5.15;;
26181;SDS011;13927;51.534;11.866;2023-05-10T06:00:09;6.70;;;5.10;;
26181;SDS011;13927;51.534;11.866;2023-05-10T06:02:36;7.82;;;5.45;;
26181;SDS011;13927;51.534;11.866;2023-05-10T06:05:03;6.78;;;4.30;;
26181;SDS011;13927;51.534;11.866;2023-05-10T06:07:29;6.72;;;4.40;;
26181;SDS011;13927;51.534;11.866;2023-05-10T06:09:55;13.43;;;6.18;;
26181;SDS011;13927;51.534;11.866;2023-05-10T06:12:22;8.55;;;4.90;;
26181;SDS011;13927;51.534;11.866;2023-05-10T06:14:48;8.52;;;4.35;;
26181;SDS011;13927;51.534;11.866;2023-05-10T06:17:15;7.88;;;4.95;;
26181;SDS011;13927;51.534;11.866;2023-05-10T06:19:41;7.20;;;4.63;;
26181;SDS011;13927;51.534;11.866;2023-05-10T06:22:07;5.50;;;3.70;;
26181;SDS011;13927;51.534;11.866;2023-05-10T06:24:34;7.88;;;4.50;;
26181;SDS011;13927;51.534;11.866;2023-05-10T06:27:00;6.70;;;4.35;;
26181;SDS011;13927;51.534;11.866;2023-05-10T06:29:27;7.72;;;4.28;;
26181;SDS011;13927;51.534;11.866;2023-05-10T06:31:53;4.80;;;3.95;;
26181;SDS011;13927;51.534;11.866;2023-05-10T06:34:19;5.90;;;4.63;;
26181;SDS011;13927;51.534;11.866;2023-05-10T06:36:45;5.25;;;4.47;;
26181;SDS011;13927;51.534;11.866;2023-05-10T06:39:12;6.22;;;4.40;;
26181;SDS011;13927;51.534;11.866;2023-05-10T06:41:38;6.07;;;4.50;;
26181;SDS011;13927;51.534;11.866;2023-05-10T06:44:04;6.47;;;4.50;;
26181;SDS011;13927;51.534;11.866;2023-05-10T06:46:30;7.53;;;4.50;;
26181;SDS011;13927;51.534;11.866;2023-05-10T06:48:56;7.82;;;5.25;;
26181;SDS011;13927;51.534;11.866;2023-05-10T06:51:22;6.22;;;4.30;;
26181;SDS011;13927;51.534;11.866;2023-05-10T06:53:48;8.10;;;5.05;;
26181;SDS011;13927;51.534;11.866;2023-05-10T06:56:14;6.97;;;4.90;;
26181;SDS011;13927;51.534;11.866;2023-05-10T06:58:40;7.38;;;4.28;;
26181;SDS011;13927;51.534;11.866;2023-05-10T07:01:06;5.65;;;4.60;;
26181;SDS011;13927;51.534;11.866;2023-05-10T07:03:33;7.93;;;4.55;;
26181;SDS011;13927;51.534;11.866;2023-05-10T07:06:00;6.45;;;4.75;;
26181;SDS011;13927;51.534;11.866;2023-05-10T07:08:30;6.38;;;4.93;;
26181;SDS011;13927;51.534;11.866;2023-05-10T07:11:03;6.15;;;4.70;;
26181;SDS011;13927;51.534;11.866;2023-05-10T07:13:30;6.65;;;5.30;;
26181;SDS011;13927;51.534;11.866;2023-05-10T07:15:57;7.70;;;5.18;;
26181;SDS011;13927;51.534;11.866;2023-05-10T07:18:24;7.30;;;4.93;;
26181;SDS011;13927;51.534;11.866;2023-05-10T07:20:50;7.22;;;4.47;;
26181;SDS011;13927;51.534;11.866;2023-05-10T07:23:16;11.00;;;5.32;;
26181;SDS011;13927;51.534;11.866;2023-05-10T07:25:45;6.35;;;5.03;;
26181;SDS011;13927;51.534;11.866;2023-05-10T07:28:13;8.00;;;5.50;;
26181;SDS011;13927;51.534;11.866;2023-05-10T07:30:39;8.07;;;5.82;;
26181;SDS011;13927;51.534;11.866;2023-05-10T07:33:06;5.93;;;4.90;;
26181;SDS011;13927;51.534;11.866;2023-05-10T07:35:33;8.73;;;5.72;;
26181;SDS011;13927;51.534;11.866;2023-05-10T07:37:59;7.15;;;5.82;;
26181;SDS011;13927;51.534;11.866;2023-05-10T07:40:26;7.13;;;5.95;;
26181;SDS011;13927;51.534;11.866;2023-05-10T07:42:53;10.05;;;6.10;;
26181;SDS011;13927;51.534;11.866;2023-05-10T07:45:19;7.07;;;5.70;;
26181;SDS011;13927;51.534;11.866;2023-05-10T07:47:46;10.32;;;6.63;;
26181;SDS011;13927;51.534;11.866;2023-05-10T07:50:13;9.80;;;6.20;;
26181;SDS011;13927;51.534;11.866;2023-05-10T07:52:39;8.02;;;6.25;;
26181;SDS011;13927;51.534;11.866;2023-05-10T07:55:05;8.93;;;6.40;;
26181;SDS011;13927;51.534;11.866;2023-05-10T07:57:35;10.73;;;6.97;;
26181;SDS011;13927;51.534;11.866;2023-05-10T08:00:02;8.20;;;5.90;;
26181;SDS011;13927;51.534;11.866;2023-05-10T08:02:28;7.25;;;6.40;;
26181;SDS011;13927;51.534;11.866;2023-05-10T08:04:54;8.10;;;6.82;;
26181;SDS011;13927;51.534;11.866;2023-05-10T08:07:21;7.93;;;6.03;;
26181;SDS011;13927;51.534;11.866;2023-05-10T08:09:48;8.15;;;6.35;;
26181;SDS011;13927;51.534;11.866;2023-05-10T08:12:14;10.07;;;7.15;;
26181;SDS011;13927;51.534;11.866;2023-05-10T08:14:40;7.40;;;6.40;;
26181;SDS011;13927;51.534;11.866;2023-05-10T08:17:06;9.85;;;7.15;;
26181;SDS011;13927;51.534;11.866;2023-05-10T08:19:33;8.20;;;7.07;;
26181;SDS011;13927;51.534;11.866;2023-05-10T08:21:59;9.13;;;7.35;;
26181;SDS011;13927;51.534;11.866;2023-05-10T08:24:25;8.75;;;7.85;;
26181;SDS011;13927;51.534;11.866;2023-05-10T08:26:51;8.77;;;7.75;;
26181;SDS011;13927;51.534;11.866;2023-05-10T08:29:17;9.80;;;7.78;;
26181;SDS011;13927;51.534;11.866;2023-05-10T08:31:44;12.95;;;7.82;;
26181;SDS011;13927;51.534;11.866;2023-05-10T08:34:10;10.48;;;8.20;;
26181;SDS011;13927;51.534;11.866;2023-05-10T08:36:36;10.02;;;7.97;;
26181;SDS011;13927;51.534;11.866;2023-05-10T08:39:03;9.18;;;8.27;;
26181;SDS011;13927;51.534;11.866;2023-05-10T08:41:29;9.27;;;7.53;;
26181;SDS011;13927;51.534;11.866;2023-05-10T08:43:58;8.43;;;7.63;;
26181;SDS011;13927;51.534;11.866;2023-05-10T08:46:30;9.55;;;8.55;;
26181;SDS011;13927;51.534;11.866;2023-05-10T08:49:03;12.00;;;8.32;;
26181;SDS011;13927;51.534;11.866;2023-05-10T08:51:33;8.10;;;7.30;;
26181;SDS011;13927;51.534;11.866;2023-05-10T08:54:02;10.02;;;7.80;;
26181;SDS011;13927;51.534;11.866;2023-05-10T08:56:30;9.57;;;8.57;;
26181;SDS011;13927;51.534;11.866;2023-05-10T08:58:57;8.02;;;7.22;;
26181;SDS011;13927;51.534;11.866;2023-05-10T09:01:23;10.32;;;7.97;;
26181;SDS011;13927;51.534;11.866;2023-05-10T09:03:51;10.30;;;7.30;;
26181;SDS011;13927;51.534;11.866;2023-05-10T09:06:17;8.25;;;6.88;;
26181;SDS011;13927;51.534;11.866;2023-05-10T09:08:44;7.55;;;6.85;;
26181;SDS011;13927;51.534;11.866;2023-05-10T09:11:11;8.60;;;6.63;;
26181;SDS011;13927;51.534;11.866;2023-05-10T09:13:38;7.10;;;6.32;;
26181;SDS011;13927;51.534;11.866;2023-05-10T09:16:05;8.13;;;6.25;;
26181;SDS011;13927;51.534;11.866;2023-05-10T09:18:31;6.20;;;5.13;;
26181;SDS011;13927;51.534;11.866;2023-05-10T09:20:58;6.47;;;5.40;;
26181;SDS011;13927;51.534;11.866;2023-05-10T09:23:23;7.13;;;5.68;;
26181;SDS011;13927;51.534;11.866;2023-05-10T09:26:05;7.13;;;5.53;;
26181;SDS011;13927;51.534;11.866;2023-05-10T09:31:22;7.45;;;5.97;;
26181;SDS011;13927;51.534;11.866;2023-05-10T09:33:50;5.50;;;4.95;;
26181;SDS011;13927;51.534;11.866;2023-05-10T09:36:17;6.55;;;5.13;;
26181;SDS011;13927;51.534;11.866;2023-05-10T09:38:49;4.60;;;4.20;;
26181;SDS011;13927;51.534;11.866;2023-05-10T09:41:23;5.55;;;4.85;;
26181;SDS011;13927;51.534;11.866;2023-05-10T09:43:50;7.82;;;4.72;;
26181;SDS011;13927;51.534;11.866;2023-05-10T09:46:21;4.25;;;3.58;;
26181;SDS011;13927;51.534;11.866;2023-05-10T09:48:48;4.93;;;4.03;;
26181;SDS011;13927;51.534;11.866;2023-05-10T09:51:20;5.82;;;3.80;;
26181;SDS011;13927;51.534;11.866;2023-05-10T09:53:48;4.47;;;3.63;;
26181;SDS011;13927;51.534;11.866;2023-05-10T09:59:14;4.63;;;3.67;;
26181;SDS011;13927;51.534;11.866;2023-05-10T10:01:40;4.80;;;2.97;;
26181;SDS011;13927;51.534;11.866;2023-05-10T10:04:06;3.67;;;2.70;;
26181;SDS011;13927;51.534;11.866;2023-05-10T10:06:39;4.30;;;2.55;;
26181;SDS011;13927;51.534;11.866;2023-05-10T10:09:06;2.63;;;2.28;;
26181;SDS011;13927;51.534;11.866;2023-05-10T10:11:34;3.08;;;2.55;;
26181;SDS011;13927;51.534;11.866;2023-05-10T10:14:02;3.08;;;2.78;;
26181;SDS011;13927;51.534;11.866;2023-05-10T10:16:29;3.13;;;2.83;;
26181;SDS011;13927;51.534;11.866;2023-05-10T10:18:57;3.22;;;2.33;;
26181;SDS011;13927;51.534;11.866;2023-05-10T10:21:24;3.13;;;2.20;;
26181;SDS011;13927;51.534;11.866;2023-05-10T10:23:50;4.50;;;2.50;;
26181;SDS011;13927;51.534;11.866;2023-05-10T10:26:18;3.90;;;2.53;;
26181;SDS011;13927;51.534;11.866;2023-05-10T10:35:07;3.85;;;2.42;;
26181;SDS011;13927;51.534;11.866;2023-05-10T10:37:43;3.13;;;2.22;;
26181;SDS011;13927;51.534;11.866;2023-05-10T10:40:27;3.25;;;2.92;;
26181;SDS011;13927;51.534;11.866;2023-05-10T10:42:55;3.67;;;3.00;;
26181;SDS011;13927;51.534;11.866;2023-05-10T10:45:22;3.35;;;2.95;;
26181;SDS011;13927;51.534;11.866;2023-05-10T10:50:46;3.60;;;3.05;;
26181;SDS011;13927;51.534;11.866;2023-05-10T10:53:12;2.60;;;2.40;;
26181;SDS011;13927;51.534;11.866;2023-05-10T10:55:47;3.00;;;2.70;;
26181;SDS011;13927;51.534;11.866;2023-05-10T10:58:29;2.90;;;2.60;;
26181;SDS011;13927;51.534;11.866;2023-05-10T11:01:15;3.87;;;2.73;;
26181;SDS011;13927;51.534;11.866;2023-05-10T11:06:31;3.10;;;2.80;;
26181;SDS011;13927;51.534;11.866;2023-05-10T11:09:06;2.92;;;2.60;;
26181;SDS011;13927;51.534;11.866;2023-05-10T11:11:35;3.17;;;2.88;;
26181;SDS011;13927;51.534;11.866;2023-05-10T11:14:13;2.63;;;2.33;;
26181;SDS011;13927;51.534;11.866;2023-05-10T11:16:45;2.30;;;2.10;;
26181;SDS011;13927;51.534;11.866;2023-05-10T11:19:12;2.72;;;2.40;;
26181;SDS011;13927;51.534;11.866;2023-05-10T11:24:31;2.70;;;2.22;;
26181;SDS011;13927;51.534;11.866;2023-05-10T11:26:58;3.00;;;2.13;;
26181;SDS011;13927;51.534;11.866;2023-05-10T11:29:25;3.72;;;2.83;;
26181;SDS011;13927;51.534;11.866;2023-05-10T11:31:51;2.88;;;2.63;;
26181;SDS011;13927;51.534;11.866;2023-05-10T11:34:24;3.08;;;2.75;;
26181;SDS011;13927;51.534;11.866;2023-05-10T11:36:56;3.90;;;2.90;;
26181;SDS011;13927;51.534;11.866;2023-05-10T11:39:26;3.47;;;2.78;;
26181;SDS011;13927;51.534;11.866;2023-05-10T11:41:54;3.35;;;2.85;;
26181;SDS011;13927;51.534;11.866;2023-05-10T11:44:21;3.03;;;2.38;;
26181;SDS011;13927;51.534;11.866;2023-05-10T11:46:47;2.90;;;2.38;;
26181;SDS011;13927;51.534;11.866;2023-05-10T11:49:15;3.45;;;3.15;;
26181;SDS011;13927;51.534;11.866;2023-05-10T11:51:41;2.65;;;2.45;;
26181;SDS011;13927;51.534;11.866;2023-05-10T11:54:09;2.95;;;2.70;;
26181;SDS011;13927;51.534;11.866;2023-05-10T11:56:37;3.45;;;3.15;;
26181;SDS011;13927;51.534;11.866;2023-05-10T11:59:04;2.60;;;2.40;;
26181;SDS011;13927;51.534;11.866;2023-05-10T12:01:30;2.80;;;2.60;;
26181;SDS011;13927;51.534;11.866;2023-05-10T12:03:57;2.45;;;2.00;;
26181;SDS011;13927;51.534;11.866;2023-05-10T12:06:31;1.85;;;1.58;;
26181;SDS011;13927;51.534;11.866;2023-05-10T12:09:06;1.63;;;1.33;;
26181;SDS011;13927;51.534;11.866;2023-05-10T12:11:36;1.50;;;1.38;;
26181;SDS011;13927;51.534;11.866;2023-05-10T12:14:07;3.05;;;1.83;;
26181;SDS011;13927;51.534;11.866;2023-05-10T12:16:35;2.03;;;1.75;;
26181;SDS011;13927;51.534;11.866;2023-05-10T12:19:01;1.52;;;1.30;;
26181;SDS011;13927;51.534;11.866;2023-05-10T12:21:28;3.00;;;2.60;;
26181;SDS011;13927;51.534;11.866;2023-05-10T12:23:59;4.38;;;3.08;;
26181;SDS011;13927;51.534;11.866;2023-05-10T12:26:28;3.13;;;2.55;;
26181;SDS011;13927;51.534;11.866;2023-05-10T12:28:55;2.80;;;2.50;;
26181;SDS011;13927;51.534;11.866;2023-05-10T12:32:14;2.72;;;2.42;;
26181;SDS011;13927;51.534;11.866;2023-05-10T12:34:33;2.42;;;2.13;;
26181;SDS011;13927;51.534;11.866;2023-05-10T12:37:01;2.60;;;2.22;;
26181;SDS011;13927;51.534;11.866;2023-05-10T12:39:41;2.75;;;2.40;;
26181;SDS011;13927;51.534;11.866;2023-05-10T12:42:09;2.75;;;2.45;;
26181;SDS011;13927;51.534;11.866;2023-05-10T12:44:35;2.30;;;2.10;;
26181;SDS011;13927;51.534;11.866;2023-05-10T12:47:01;2.63;;;2.40;;
26181;SDS011;13927;51.534;11.866;2023-05-10T12:49:27;2.90;;;2.58;;
26181;SDS011;13927;51.534;11.866;2023-05-10T12:51:53;2.40;;;2.20;;
26181;SDS011;13927;51.534;11.866;2023-05-10T12:54:19;2.72;;;2.25;;
26181;SDS011;13927;51.534;11.866;2023-05-10T12:56:46;3.40;;;2.53;;
26181;SDS011;13927;51.534;11.866;2023-05-10T12:59:12;3.90;;;2.30;;
26181;SDS011;13927;51.534;11.866;2023-05-10T13:01:38;2.50;;;2.28;;
26181;SDS011;13927;51.534;11.866;2023-05-10T13:04:04;3.38;;;2.33;;
26181;SDS011;13927;51.534;11.866;2023-05-10T13:06:30;3.63;;;2.28;;
26181;SDS011;13927;51.534;11.866;2023-05-10T13:08:56;3.55;;;2.47;;
26181;SDS011;13927;51.534;11.866;2023-05-10T13:11:22;2.30;;;2.08;;
26181;SDS011;13927;51.534;11.866;2023-05-10T13:13:48;2.72;;;2.10;;
26181;SDS011;13927;51.534;11.866;2023-05-10T13:16:15;2.20;;;2.00;;
26181;SDS011;13927;51.534;11.866;2023-05-10T13:18:41;3.00;;;2.10;;
26181;SDS011;13927;51.534;11.866;2023-05-10T13:21:07;3.28;;;2.67;;
26181;SDS011;13927;51.534;11.866;2023-05-10T13:23:33;2.33;;;2.08;;
26181;SDS011;13927;51.534;11.866;2023-05-10T13:25:59;2.90;;;1.65;;
26181;SDS011;13927;51.534;11.866;2023-05-10T13:28:25;3.60;;;1.92;;
26181;SDS011;13927;51.534;11.866;2023-05-10T13:30:52;3.00;;;1.90;;
26181;SDS011;13927;51.534;11.866;2023-05-10T13:33:18;3.40;;;1.50;;
26181;SDS011;13927;51.534;11.866;2023-05-10T13:35:44;2.13;;;1.60;;
26181;SDS011;13927;51.534;11.866;2023-05-10T13:38:10;4.55;;;1.50;;
26181;SDS011;13927;51.534;11.866;2023-05-10T13:40:37;2.40;;;1.65;;
26181;SDS011;13927;51.534;11.866;2023-05-10T13:43:03;1.85;;;1.45;;
26181;SDS011;13927;51.534;11.866;2023-05-10T13:45:30;1.85;;;1.50;;
26181;SDS011;13927;51.534;11.866;2023-05-10T13:47:56;1.55;;;1.30;;
26181;SDS011;13927;51.534;11.866;2023-05-10T13:50:22;1.50;;;1.40;;
26181;SDS011;13927;51.534;11.866;2023-05-10T13:52:48;1.63;;;1.40;;
26181;SDS011;13927;51.534;11.866;2023-05-10T13:55:14;1.88;;;1.50;;
26181;SDS011;13927;51.534;11.866;2023-05-10T13:57:41;2.00;;;1.63;;
26181;SDS011;13927;51.534;11.866;2023-05-10T14:00:08;1.63;;;1.52;;
26181;SDS011;13927;51.534;11.866;2023-05-10T14:02:35;1.63;;;1.52;;
26181;SDS011;13927;51.534;11.866;2023-05-10T14:05:01;1.77;;;1.58;;
26181;SDS011;13927;51.534;11.866;2023-05-10T14:07:28;1.60;;;1.50;;
26181;SDS011;13927;51.534;11.866;2023-05-10T14:09:54;1.73;;;1.63;;
26181;SDS011;13927;51.534;11.866;2023-05-10T14:12:20;2.55;;;1.42;;
26181;SDS011;13927;51.534;11.866;2023-05-10T14:14:45;1.30;;;1.20;;
26181;SDS011;13927;51.534;11.866;2023-05-10T14:17:11;1.73;;;1.50;;
26181;SDS011;13927;51.534;11.866;2023-05-10T14:19:38;2.05;;;1.52;;
26181;SDS011;13927;51.534;11.866;2023-05-10T14:22:04;1.60;;;1.50;;
26181;SDS011;13927;51.534;11.866;2023-05-10T14:24:30;1.95;;;1.38;;
26181;SDS011;13927;51.534;11.866;2023-05-10T14:26:56;2.90;;;2.53;;
26181;SDS011;13927;51.534;11.866;2023-05-10T14:29:22;3.25;;;2.90;;
26181;SDS011;13927;51.534;11.866;2023-05-10T14:31:49;3.72;;;2.97;;
26181;SDS011;13927;51.534;11.866;2023-05-10T14:34:15;3.35;;;3.05;;
26181;SDS011;13927;51.534;11.866;2023-05-10T14:36:41;3.97;;;2.72;;
26181;SDS011;13927;51.534;11.866;2023-05-10T14:39:08;4.03;;;3.63;;
26181;SDS011;13927;51.534;11.866;2023-05-10T14:41:35;4.03;;;3.10;;
26181;SDS011;13927;51.534;11.866;2023-05-10T14:44:02;3.08;;;2.83;;
26181;SDS011;13927;51.534;11.866;2023-05-10T14:46:28;3.88;;;2.70;;
26181;SDS011;13927;51.534;11.866;2023-05-10T14:48:55;3.53;;;3.22;;
26181;SDS011;13927;51.534;11.866;2023-05-10T14:51:20;3.33;;;3.00;;
26181;SDS011;13927;51.534;11.866;2023-05-10T14:53:49;3.47;;;2.80;;
26181;SDS011;13927;51.534;11.866;2023-05-10T14:56:15;3.38;;;3.08;;
26181;SDS011;13927;51.534;11.866;2023-05-10T14:58:41;3.25;;;2.95;;
26181;SDS011;13927;51.534;11.866;2023-05-10T15:01:07;4.05;;;2.85;;
26181;SDS011;13927;51.534;11.866;2023-05-10T15:03:33;3.83;;;3.42;;
26181;SDS011;13927;51.534;11.866;2023-05-10T15:06:00;4.75;;;3.80;;
26181;SDS011;13927;51.534;11.866;2023-05-10T15:08:27;23.85;;;10.10;;
26181;SDS011;13927;51.534;11.866;2023-05-10T15:10:53;4.15;;;3.28;;
26181;SDS011;13927;51.534;11.866;2023-05-10T15:13:21;4.78;;;3.40;;